ADDS METAR Data INFO
IDs: Format: Raw Decoded Include TAF

Data at: 1017 UTC 14 Dec 2017

KHRI 140953Z AUTO 11003KT 8SM OVC015 M01/M03 A3061 RMK AO2 SLP371 T10061028
KHRI 140941Z AUTO 00000KT 8SM OVC014 M01/M02 A3061 RMK AO2 T10061022
KHRI 140853Z AUTO 13004KT 7SM OVC015 M01/M03 A3062 RMK AO2 SLP373 T10061028 58006
KHRI 140803Z AUTO 00000KT 8SM OVC015 00/M03 A3063 RMK AO2 T00001028
KHRI 140753Z AUTO 12004KT 9SM OVC014 00/M03 A3064 RMK AO2 SLP380 T00001028 400061011
KHRI 140653Z AUTO 00000KT 7SM OVC014 00/M02 A3064 RMK AO2 SLP383 T00001017
KHRI 140640Z AUTO 00000KT 7SM OVC014 00/M02 A3064 RMK AO2 T00001017
KHRI 140629Z AUTO 00000KT 8SM OVC015 00/M02 A3064 RMK AO2 T00001022
KHRI 140615Z AUTO 00000KT 6SM BR OVC014 M01/M02 A3064 RMK AO2 T10061017
KHRI 140601Z AUTO 00000KT 7SM OVC015 M01/M02 A3064 RMK AO2 T10061017
KHRI 140553Z AUTO 00000KT 7SM OVC014 M01/M02 A3063 RMK AO2 SLP381 T10061017 10000 21006 53003
KHRI 140453Z AUTO 00000KT 7SM OVC013 00/M02 A3063 RMK AO2 SLP377 T00001017
KHRI 140353Z AUTO 16005KT 7SM OVC014 M01/M02 A3063 RMK AO2 SLP379 T10061017
KHRI 140253Z AUTO 00000KT 8SM OVC014 00/M02 A3063 RMK AO2 SLP377 T00001022 53011
KHRI 140153Z AUTO 00000KT 9SM OVC014 00/M02 A3061 RMK AO2 SLP372 T00001022
KHRI 140114Z AUTO 00000KT 9SM OVC014 00/M02 A3060 RMK AO2 T00001022
KHRI 140053Z AUTO 00000KT 9SM OVC015 00/M03 A3060 RMK AO2 SLP367 T00001028
KHRI 132353Z AUTO 10004KT 8SM OVC016 00/M03 A3059 RMK AO2 SLP366 T00001028 10006 21006 53004
KHRI 132253Z AUTO 00000KT 9SM OVC016 00/M03 A3059 RMK AO2 SLP365 T00001028
KHRI 132153Z AUTO 00000KT 9SM OVC019 01/M03 A3058 RMK AO2 SLP361 T00061028
KHRI 132053Z AUTO 17003KT 8SM OVC019 00/M02 A3058 RMK AO2 SLP362 T00001022 58007
KHRI 131953Z AUTO 19006KT 7SM OVC019 00/M02 A3059 RMK AO2 SLP365 T00001017
KHRI 131853Z AUTO 20004KT 6SM BR OVC018 00/M02 A3061 RMK AO2 SLP373 T00001017
KHRI 131753Z AUTO 23003KT 6SM BR OVC016 M01/M02 A3060 RMK AO2 SLP370 T10061017 11006 21011 53020
KHRI 131653Z AUTO 00000KT 5SM BR OVC016 M01/M02 A3057 RMK AO2 SLP358 T10061017
KHRI 131553Z AUTO 00000KT 7SM OVC017 M01/M02 A3055 RMK AO2 SLP353 T10111022
KHRI 131453Z AUTO 00000KT 7SM OVC018 M01/M02 A3054 RMK AO2 SLP350 T10111022 55001
KHRI 131353Z AUTO 00000KT 7SM OVC017 M01/M02 A3053 RMK AO2 SLP346 T10111022
KHRI 131253Z AUTO 00000KT 8SM OVC016 M01/M02 A3055 RMK AO2 SLP351 T10111022
KHRI 131153Z AUTO 18004KT 8SM OVC016 M01/M02 A3055 RMK AO2 UPE02 SLP350 P0000 60000 T10111022 11011 21011 58008
KHRI 131053Z AUTO 00000KT 7SM UP OVC015 M01/M02 A3056 RMK AO2 UPB09 SLP354 P0000 T10111022
KHRI 130953Z AUTO 16003KT 9SM OVC016 M01/M03 A3057 RMK AO2 SLP357 T10111028
KHRI 130853Z AUTO 00000KT 9SM OVC017 M01/M03 A3057 RMK AO2 SLP359 T10111033 53002
KHRI 130753Z AUTO 00000KT 10SM OVC017 M01/M03 A3055 RMK AO2 SLP352 T10111033 410061017
KHRI 130653Z AUTO 18003KT 9SM OVC017 M01/M03 A3056 RMK AO2 SLP354 T10111033
KHRI 130553Z AUTO 00000KT 10SM OVC017 M01/M03 A3057 RMK AO2 SLP357 T10111033 11006 21011 58006
KHRI 130453Z AUTO 00000KT 10SM OVC017 M01/M03 A3057 RMK AO2 SLP358 T10111033
KHRI 130353Z AUTO 00000KT 10SM OVC016 M01/M03 A3058 RMK AO2 SLP363 T10061033
KHRI 130253Z AUTO 00000KT 10SM OVC018 M01/M03 A3058 RMK AO2 SLP363 T10061033 51005
KHRI 130153Z AUTO 00000KT 10SM OVC018 M01/M03 A3058 RMK AO2 SLP362 T10061033
KHRI 130053Z AUTO 00000KT 10SM OVC017 M01/M04 A3058 RMK AO2 SLP360 T10061039
KHRI 122353Z AUTO 34003KT 10SM OVC017 M01/M04 A3057 RMK AO2 SLP358 T10061039 11006 21011 56018
KHRI 122253Z AUTO 00000KT 10SM OVC016 M01/M04 A3058 RMK AO2 SLP361 T10061039